CheckWX is a tool to help pilots better visualize weather data.  It is not intended as a substitute for an official pre-flight weather briefing.

12:03:24 UTC

KDDH METAR
William H Morse State Airport
Bennington, Vermont, USA
Current

9 mins ago

KDDH 251154Z AUTO 29004KT 10SM FEW039 M01/M12 A3008 RMK AO2 SLP191 T10111122 10050 21011 53029
Observed
Mar-25 @ 11:54 UTC
Wind
  • 290° at 4 KTS
Visibility
10 SM
Flight Rules
VFR
Cloud Levels
  • Few at 3,900' AGL
Temperature
-1°C / 30°F
Dewpoint
-12°C / 10°F
Humidity
43%
Altimeter
30.08" Hg
Pressure
1019.1 hPa
Previous

1 hour ago

KDDH 251054Z AUTO 32006KT 10SM FEW036 BKN080 M01/M09 A3004 RMK AO2 SLP178 T10061089
Observed
Mar-25 @ 10:54 UTC
Wind
  • 320° at 6 KTS
Visibility
10 SM
Flight Rules
VFR
Cloud Levels
  • Few at 3,600' AGL
  • Broken at 8,000' AGL
Temperature
-1°C / 30°F
Dewpoint
-9°C / 16°F
Humidity
55%
Altimeter
30.04" Hg
Pressure
1017.8 hPa
Previous

2 hours ago

KDDH 250954Z AUTO 32005KT 10SM BKN032 OVC042 01/M05 A3001 RMK AO2 SLP168 T00061050
Observed
Mar-25 @ 09:54 UTC
Wind
  • 320° at 5 KTS
Visibility
10 SM
Flight Rules
VFR
Cloud Levels
  • Broken at 3,200' AGL
  • Overcast at 4,200' AGL
Temperature
C / 34°F
Dewpoint
-5°C / 23°F
Humidity
65%
Altimeter
30.01" Hg
Pressure
1016.8 hPa